TAF KTTN
KTTN 090525Z 0906/1006 31008KT P6SM SCT045 FM091000 31006KT P6SM SCT250 FM091900 VRB03KT P6SM BKN250 FM100000 16004KT P6SM BKN120=
METAR KTTN
WC KTTN
WS KTTN
WV KTTN